createdAt,value
2022-12-18T00:08:19.314Z,96208.22
2022-12-18T00:18:32.319Z,96220.28
2022-12-18T00:28:45.345Z,96204.13
2022-12-18T00:38:58.317Z,96168.50
2022-12-18T00:49:11.364Z,96151.69
2022-12-18T00:59:25.325Z,96139.75
2022-12-18T01:09:38.358Z,96107.72
2022-12-18T01:19:51.335Z,96126.44
2022-12-18T01:30:04.365Z,96083.91
2022-12-18T01:40:17.334Z,96071.53
2022-12-18T01:51:02.387Z,96032.41
2022-12-18T02:01:15.470Z,96005.53
2022-12-18T02:11:55.381Z,96006.72
2022-12-18T02:22:23.379Z,95952.41
2022-12-18T02:32:40.411Z,95859.50
2022-12-18T02:42:53.401Z,95893.84
2022-12-18T02:53:44.421Z,95865.09
2022-12-18T03:04:01.391Z,95837.94
2022-12-18T03:14:15.451Z,95769.34
2022-12-18T03:24:28.403Z,95785.94
2022-12-18T03:34:47.434Z,95721.22
2022-12-18T03:45:19.450Z,95703.31
2022-12-18T03:55:34.472Z,95750.47
2022-12-18T04:05:54.442Z,95746.47
2022-12-18T04:16:07.501Z,95770.31
2022-12-18T04:26:27.452Z,95721.38
2022-12-18T04:36:40.479Z,95718.94
2022-12-18T04:46:53.492Z,95769.34
2022-12-18T04:57:07.497Z,95748.59
2022-12-18T05:07:20.464Z,95760.50
2022-12-18T05:17:33.518Z,95766.41
2022-12-18T05:27:52.474Z,95775.88
2022-12-18T05:38:05.501Z,95755.22
2022-12-18T05:48:18.468Z,95727.03
2022-12-18T05:58:31.513Z,95788.69
2022-12-18T06:08:46.378Z,95808.28
2022-12-18T06:18:59.497Z,95752.56
2022-12-18T06:29:12.555Z,95724.38
2022-12-18T06:39:25.516Z,95794.66
2022-12-18T06:49:38.553Z,95764.41
2022-12-18T06:59:51.525Z,95745.09
2022-12-18T07:10:04.575Z,95745.31
2022-12-18T07:20:18.542Z,95703.38
2022-12-18T07:30:31.581Z,95734.31
2022-12-18T07:40:44.544Z,95702.34
2022-12-18T07:50:57.583Z,95751.31
2022-12-18T08:01:20.724Z,95783.88
2022-12-18T08:11:35.606Z,95795.09
2022-12-18T08:21:48.568Z,95374.22
2022-12-18T08:32:01.663Z,95310.47
2022-12-18T08:42:32.599Z,95249.59
2022-12-18T08:52:45.670Z,95085.09
2022-12-18T09:02:59.737Z,94766.44
2022-12-18T09:13:12.636Z,94737.38
2022-12-18T09:23:25.618Z,94913.56
2022-12-18T09:33:45.649Z,95047.31
2022-12-18T09:44:05.665Z,95072.91
2022-12-18T09:54:26.661Z,95189.63
2022-12-18T10:04:40.675Z,95461.22
2022-12-18T10:15:05.669Z,95705.06
2022-12-18T10:25:42.632Z,96151.81
2022-12-18T10:35:56.688Z,96146.22
2022-12-18T10:46:11.698Z,96253.25
2022-12-18T10:56:28.692Z,96438.53
2022-12-18T11:06:41.646Z,96429.38
2022-12-18T11:17:26.096Z,96709.75
2022-12-18T11:27:34.703Z,96814.34
2022-12-18T11:37:49.737Z,97145.78
2022-12-18T11:48:09.686Z,97082.91
2022-12-18T11:58:34.718Z,97119.97
2022-12-18T12:09:43.685Z,97152.56
2022-12-18T12:20:08.746Z,97108.12
2022-12-18T12:30:27.692Z,97176.69
2022-12-18T12:40:55.362Z,97159.91
2022-12-18T12:51:24.701Z,97192.53
2022-12-18T13:01:56.886Z,97114.31
2022-12-18T13:12:33.339Z,97142.63
2022-12-18T13:22:51.762Z,97146.22
2022-12-18T13:33:22.746Z,97163.34
2022-12-18T13:43:42.451Z,97171.25
2022-12-18T13:53:59.752Z,97168.97
2022-12-18T14:04:28.811Z,97155.59
2022-12-18T14:14:41.773Z,97156.69
2022-12-18T14:24:54.810Z,97136.59
2022-12-18T14:35:21.789Z,97133.47
2022-12-18T14:45:45.821Z,97110.81
2022-12-18T14:55:58.825Z,97088.16
2022-12-18T15:06:45.819Z,97068.06
2022-12-18T15:17:07.838Z,97061.44
2022-12-18T15:27:46.821Z,97008.38
2022-12-18T15:38:00.837Z,96969.66
2022-12-18T15:48:25.862Z,97015.31
2022-12-18T15:58:38.845Z,96979.19
2022-12-18T16:08:51.829Z,96977.56
2022-12-18T16:19:04.849Z,97001.16
2022-12-18T16:29:24.832Z,96957.44
2022-12-18T16:39:38.885Z,96918.00
2022-12-18T16:49:58.924Z,96859.25
2022-12-18T17:00:12.892Z,96845.84
2022-12-18T17:10:25.848Z,96808.91
2022-12-18T17:20:38.905Z,96708.13
2022-12-18T17:30:51.912Z,96679.72
2022-12-18T17:41:08.905Z,96584.84
2022-12-18T17:51:22.898Z,96454.81
2022-12-18T18:01:42.432Z,96355.78
2022-12-18T18:12:15.899Z,96239.03
2022-12-18T18:22:28.917Z,96225.78
2022-12-18T18:32:45.900Z,96157.97
2022-12-18T18:42:58.929Z,96132.09
2022-12-18T18:53:11.925Z,96092.88
2022-12-18T19:03:28.056Z,96058.59
2022-12-18T19:13:42.144Z,96034.31
2022-12-18T19:23:55.958Z,96050.44
2022-12-18T19:34:08.938Z,96029.59
2022-12-18T19:44:25.970Z,96006.16
2022-12-18T19:54:38.947Z,95997.94
2022-12-18T20:04:51.969Z,96006.56
2022-12-18T20:15:05.003Z,95958.00
2022-12-18T20:25:23.996Z,95920.59
2022-12-18T20:35:38.965Z,95909.78
2022-12-18T20:45:52.026Z,95921.59
2022-12-18T20:56:05.010Z,95858.81
2022-12-18T21:06:17.993Z,95853.88
2022-12-18T21:16:31.132Z,95778.59
2022-12-18T21:26:51.018Z,95750.22
2022-12-18T21:37:05.992Z,95731.88
2022-12-18T21:47:23.050Z,95710.19
2022-12-18T21:57:36.031Z,95687.56
2022-12-18T22:07:49.037Z,95592.84
2022-12-18T22:18:02.032Z,95574.50
2022-12-18T22:28:39.046Z,95567.75
2022-12-18T22:38:52.033Z,95499.84
2022-12-18T22:49:07.017Z,95446.97
2022-12-18T22:59:27.085Z,95441.34
2022-12-18T23:09:40.019Z,95412.87
2022-12-18T23:19:53.087Z,95409.66
2022-12-18T23:30:13.087Z,95389.50
2022-12-18T23:40:26.100Z,95374.50
2022-12-18T23:50:39.085Z,95365.38
